Vick, Louisiana
Current Conditions -  °F | °C
As of 3:53 PM on Thursday 27 Nov 2014 (Local Time) from KESF Reporting Station
Clear Clear  
Wind Chill: 56°   Ceiling: Unl
Heat Index: 56°   Visibility: 10mi
Dew Point: 30°   Wind: 7mph
Humidity: 37%   Direction: 10°N
Pressure: 30.44"   Gusts: NA
Location:  31.269°N, 92.0664°W
Report Text: KESF 272153Z AUTO 01006KT 10SM CLR 13/M01 A3044 RMK AO2 SLP306 T01331011
Loading
Personal Weather Stations






























Interactive Weather Map New forecast layout! Learn more

10-Day Weather Forecast

Advertisements
Track Severe Weather on mobile